Time;durP1;ratioP1;P1;durP2;ratioP2;P2;SDS_P1;SDS_P2;PMS_P1;PMS_P2;Temp;Humidity;BMP_temperature;BMP_pressure;BME280_temperature;BME280_humidity;BME280_pressure;Samples;Min_cycle;Max_cycle;Signal;HPM_P1;HPM_P2
2022/04/18 00:00:00;;;;;;;29.27;15.38;;;7.20;82.90;;;;;;5136183;27;20136;-75
2022/04/18 00:02:27;;;;;;;27.48;15.40;;;7.20;83.30;;;;;;5135779;27;20491;-73
2022/04/18 00:04:52;;;;;;;26.20;15.13;;;7.20;83.70;;;;;;5100246;27;20112;-75
2022/04/18 00:07:18;;;;;;;26.40;14.68;;;7.20;84.90;;;;;;5118134;27;20050;-75
2022/04/18 00:09:45;;;;;;;30.52;15.15;;;7.10;84.50;;;;;;5135154;27;20130;-74
2022/04/18 00:12:11;;;;;;;28.75;14.60;;;7.10;84.60;;;;;;5117794;27;20104;-75
2022/04/18 00:14:37;;;;;;;29.67;15.60;;;7.10;84.60;;;;;;5101126;27;20058;-76
2022/04/18 00:17:03;;;;;;;31.58;15.85;;;7.10;84.60;;;;;;5134359;27;20479;-74
2022/04/18 00:19:29;;;;;;;32.58;16.30;;;7.10;84.70;;;;;;5134553;27;20095;-74
2022/04/18 00:21:54;;;;;;;31.33;16.52;;;7.00;84.80;;;;;;5135185;27;20043;-75
2022/04/18 00:24:21;;;;;;;29.48;16.73;;;7.00;85.30;;;;;;5135660;27;20039;-74
2022/04/18 00:26:47;;;;;;;28.52;16.25;;;7.00;85.20;;;;;;5117329;27;20035;-75
2022/04/18 00:29:13;;;;;;;29.65;16.40;;;6.90;85.20;;;;;;5133989;27;20096;-74
2022/04/18 00:31:39;;;;;;;33.60;16.63;;;6.90;85.30;;;;;;5135870;27;20125;-75
2022/04/18 00:34:05;;;;;;;28.35;16.73;;;6.90;85.40;;;;;;5134672;27;20177;-74
2022/04/18 00:36:31;;;;;;;31.93;16.60;;;6.80;85.50;;;;;;5100733;27;20047;-75
2022/04/18 00:38:58;;;;;;;29.52;16.08;;;6.80;85.70;;;;;;5136154;27;20395;-75
2022/04/18 00:41:24;;;;;;;31.80;17.00;;;6.80;85.90;;;;;;5135177;27;20062;-75
2022/04/18 00:43:50;;;;;;;33.67;16.92;;;6.80;86.00;;;;;;5117573;27;20059;-75
2022/04/18 00:46:20;;;;;;;34.45;16.13;;;6.70;86.20;;;;;;5135707;27;20047;-75
2022/04/18 00:48:48;;;;;;;31.13;15.68;;;6.70;86.60;;;;;;5135280;27;20051;-74
2022/04/18 00:51:17;;;;;;;37.50;16.45;;;6.70;86.80;;;;;;5117596;27;20091;-75
2022/04/18 00:53:44;;;;;;;30.85;15.75;;;6.70;86.50;;;;;;5134056;27;20061;-74
2022/04/18 00:56:13;;;;;;;31.35;16.27;;;6.70;86.70;;;;;;5134089;27;20100;-73
2022/04/18 00:58:41;;;;;;;32.83;16.70;;;6.60;86.80;;;;;;5137683;27;20038;-75
2022/04/18 01:01:07;;;;;;;33.20;16.20;;;6.60;86.80;;;;;;5135218;27;20053;-74
2022/04/18 01:03:33;;;;;;;28.95;17.52;;;6.60;87.00;;;;;;5136496;27;20047;-75
2022/04/18 01:06:03;;;;;;;34.65;18.42;;;6.50;87.20;;;;;;5117192;27;20046;-75
2022/04/18 01:08:31;;;;;;;30.75;16.00;;;6.50;87.80;;;;;;5134042;27;20046;-75
2022/04/18 01:10:57;;;;;;;32.53;16.77;;;6.40;87.90;;;;;;5133812;27;20043;-74
2022/04/18 01:13:23;;;;;;;32.17;17.83;;;6.40;88.10;;;;;;5132707;27;20058;-74
2022/04/18 01:15:56;;;;;;;31.15;16.63;;;6.40;88.20;;;;;;5116395;27;20172;-72
2022/04/18 01:18:23;;;;;;;31.20;16.80;;;6.40;88.40;;;;;;5133318;27;20043;-74
2022/04/18 01:20:49;;;;;;;31.63;17.65;;;6.40;88.50;;;;;;5134765;27;20220;-74
2022/04/18 01:23:17;;;;;;;32.83;18.08;;;6.40;88.50;;;;;;5133099;27;20047;-74
2022/04/18 01:31:12;;;;;;;34.67;17.85;;;6.40;88.30;;;;;;5135104;27;20047;-74
2022/04/18 01:33:38;;;;;;;36.63;18.33;;;6.40;88.40;;;;;;5134654;27;20046;-74
2022/04/18 01:36:04;;;;;;;39.10;19.25;;;6.40;88.50;;;;;;5132974;27;20545;-75
2022/04/18 01:38:30;;;;;;;35.65;18.95;;;6.40;88.50;;;;;;5133166;27;20474;-75
2022/04/18 01:40:56;;;;;;;37.03;17.88;;;6.30;88.60;;;;;;5147392;27;20063;-74
2022/04/18 01:43:22;;;;;;;38.22;18.20;;;6.30;88.50;;;;;;5154888;27;20363;-74
2022/04/18 01:45:47;;;;;;;35.22;18.17;;;6.30;88.70;;;;;;5136128;27;20436;-74
2022/04/18 01:48:13;;;;;;;32.95;18.20;;;6.30;88.90;;;;;;5118918;27;20050;-74
2022/04/18 01:50:40;;;;;;;35.00;17.88;;;6.30;89.10;;;;;;5136548;27;20051;-74
2022/04/18 01:53:06;;;;;;;34.17;18.70;;;6.30;89.20;;;;;;5119649;27;20138;-74
2022/04/18 01:55:32;;;;;;;36.47;18.27;;;6.30;89.20;;;;;;5136742;27;20046;-74
2022/04/18 01:57:57;;;;;;;35.58;19.10;;;6.20;89.50;;;;;;5119624;27;20102;-74
2022/04/18 02:00:23;;;;;;;36.88;18.63;;;6.20;89.60;;;;;;5154540;27;20043;-75
2022/04/18 02:02:49;;;;;;;35.13;18.27;;;6.20;89.90;;;;;;5136011;27;20051;-74
2022/04/18 02:05:15;;;;;;;38.50;18.23;;;6.20;89.80;;;;;;5136302;27;20039;-75
2022/04/18 02:07:40;;;;;;;34.22;18.20;;;6.20;89.70;;;;;;5119504;27;20042;-73
2022/04/18 02:10:06;;;;;;;36.15;19.08;;;6.30;89.90;;;;;;5119413;27;20066;-74
2022/04/18 02:12:33;;;;;;;37.75;17.90;;;6.20;90.00;;;;;;5118694;27;20046;-74
2022/04/18 02:14:59;;;;;;;36.17;19.33;;;6.30;89.50;;;;;;5102185;27;20070;-73
2022/04/18 02:17:25;;;;;;;32.58;18.05;;;6.30;89.30;;;;;;5119258;27;20114;-74
2022/04/18 02:19:52;;;;;;;31.52;18.00;;;6.20;89.20;;;;;;5154455;27;20074;-75
2022/04/18 02:22:18;;;;;;;37.60;19.42;;;6.20;89.20;;;;;;5136144;27;20058;-74
2022/04/18 02:24:44;;;;;;;36.35;18.42;;;6.30;89.10;;;;;;5155195;27;20042;-74
2022/04/18 02:27:10;;;;;;;38.38;19.17;;;6.20;89.20;;;;;;5139904;27;20096;-75
2022/04/18 02:29:36;;;;;;;36.42;19.67;;;6.10;89.10;;;;;;5140126;27;20057;-75
2022/04/18 02:34:46;;;;;;;35.83;19.13;;;6.10;89.30;;;;;;5158946;27;20091;-74
2022/04/18 02:37:12;;;;;;;35.42;19.38;;;6.00;89.30;;;;;;5158570;27;20046;-74
2022/04/18 02:39:37;;;;;;;36.55;18.52;;;6.00;89.50;;;;;;5139707;27;20141;-74
2022/04/18 02:42:04;;;;;;;33.83;18.98;;;6.00;89.80;;;;;;5140227;27;20058;-75
2022/04/18 02:44:30;;;;;;;35.80;19.60;;;5.90;89.90;;;;;;5140050;27;20047;-75
2022/04/18 02:46:55;;;;;;;35.78;18.75;;;5.80;89.80;;;;;;5122892;27;20049;-74
2022/04/18 02:49:21;;;;;;;31.33;17.95;;;5.80;89.80;;;;;;5123344;27;20042;-75
2022/04/18 02:51:47;;;;;;;36.97;19.25;;;5.80;90.00;;;;;;5139806;27;20229;-75
2022/04/18 02:54:13;;;;;;;32.63;18.88;;;5.80;90.00;;;;;;5139689;27;20058;-75
2022/04/18 02:56:39;;;;;;;31.02;17.83;;;5.70;90.10;;;;;;5123438;27;20474;-75
2022/04/18 02:59:04;;;;;;;32.15;18.65;;;5.70;90.20;;;;;;5158293;27;20046;-74
2022/04/18 03:01:30;;;;;;;34.08;18.45;;;5.60;90.30;;;;;;5158022;27;20045;-74
2022/04/18 03:03:56;;;;;;;37.65;18.52;;;5.60;90.40;;;;;;5158257;27;20134;-74
2022/04/18 03:06:22;;;;;;;32.65;18.05;;;5.60;90.60;;;;;;5140378;27;20038;-74
2022/04/18 03:08:48;;;;;;;37.47;19.33;;;5.60;90.50;;;;;;5140362;27;20388;-75
2022/04/18 03:11:14;;;;;;;31.40;17.85;;;5.50;90.60;;;;;;5107720;27;20057;-76
2022/04/18 03:13:46;;;;;;;34.60;19.52;;;5.50;90.70;;;;;;5158315;27;20056;-76
2022/04/18 03:16:13;;;;;;;36.17;18.83;;;5.40;90.80;;;;;;5124458;27;20102;-75
2022/04/18 03:18:39;;;;;;;33.10;18.42;;;5.40;91.00;;;;;;5157952;27;20057;-74
2022/04/18 03:21:06;;;;;;;36.00;18.70;;;5.30;91.10;;;;;;5139923;27;20127;-74
2022/04/18 03:23:32;;;;;;;35.45;19.73;;;5.30;91.20;;;;;;5158459;27;20284;-75
2022/04/18 03:25:58;;;;;;;41.88;19.58;;;5.20;91.30;;;;;;5139700;27;20431;-75
2022/04/18 03:28:25;;;;;;;34.78;18.85;;;5.20;91.40;;;;;;5139764;27;20054;-73
2022/04/18 03:30:51;;;;;;;33.60;18.85;;;5.20;91.50;;;;;;5123276;27;20102;-74
2022/04/18 03:33:16;;;;;;;35.67;19.13;;;5.20;91.60;;;;;;5122536;27;20494;-74
2022/04/18 03:39:50;;;;;;;32.75;18.17;;;5.20;91.70;;;;;;5122932;27;20515;-74
2022/04/18 03:41:14;;;;;;;30.98;18.08;;;5.10;91.90;;;;;;5139423;27;20123;-74
2022/04/18 03:43:39;;;;;;;32.03;17.20;;;5.10;92.00;;;;;;5158131;27;20394;-75
2022/04/18 03:46:05;;;;;;;33.10;18.40;;;5.10;92.00;;;;;;5122293;27;20043;-74
2022/04/18 03:48:31;;;;;;;31.33;17.90;;;5.10;92.10;;;;;;5139055;27;20047;-75
2022/04/18 03:50:57;;;;;;;37.90;18.52;;;5.10;92.00;;;;;;5159288;27;20077;-75
2022/04/18 03:53:23;;;;;;;31.48;17.98;;;5.10;92.20;;;;;;5140424;27;20475;-75
2022/04/18 03:55:49;;;;;;;37.63;18.90;;;5.10;92.20;;;;;;5161172;27;20053;-75
2022/04/18 03:58:14;;;;;;;31.80;17.27;;;5.10;92.10;;;;;;5138081;27;20034;-74
2022/04/18 04:00:42;;;;;;;31.42;17.65;;;5.10;92.20;;;;;;5162276;27;20042;-74
2022/04/18 04:03:10;;;;;;;;;;;5.00;92.20;;;;;;5181055;27;20053;-74
2022/04/18 04:05:39;;;;;;;33.08;17.35;;;5.00;92.40;;;;;;5179835;27;19919;-74
2022/04/18 04:08:06;;;;;;;35.35;18.15;;;5.00;92.40;;;;;;5161425;27;20043;-74
2022/04/18 04:10:32;;;;;;;32.30;17.45;;;5.00;92.50;;;;;;5178885;27;20042;-75
2022/04/18 04:12:58;;;;;;;31.05;17.20;;;5.00;92.50;;;;;;5177826;27;20094;-73
2022/04/18 04:15:24;;;;;;;37.33;18.00;;;4.90;92.60;;;;;;5145801;27;20490;-74
2022/04/18 04:17:49;;;;;;;31.55;17.48;;;4.90;92.70;;;;;;5159583;27;20050;-75
2022/04/18 04:20:16;;;;;;;33.67;18.20;;;4.90;92.90;;;;;;5140102;27;20061;-75
2022/04/18 04:22:48;;;;;;;31.85;18.08;;;4.90;93.10;;;;;;5138748;27;20053;-75
2022/04/18 04:25:23;;;;;;;35.67;18.73;;;4.90;93.20;;;;;;5156922;27;20038;-75
2022/04/18 04:27:49;;;;;;;32.20;17.85;;;4.80;93.30;;;;;;5156872;27;20074;-74
2022/04/18 04:30:15;;;;;;;32.65;17.73;;;4.80;93.50;;;;;;5138443;27;20151;-75
2022/04/18 04:32:40;;;;;;;31.83;16.88;;;4.90;93.50;;;;;;5137585;27;20055;-74
2022/04/18 04:35:06;;;;;;;36.47;17.73;;;4.80;93.40;;;;;;5138639;27;20129;-74
2022/04/18 04:37:32;;;;;;;33.80;16.98;;;4.90;93.60;;;;;;5138128;27;20050;-74
2022/04/18 04:39:58;;;;;;;38.83;19.27;;;5.00;93.70;;;;;;5156154;27;20081;-75
2022/04/18 04:42:24;;;;;;;35.63;18.02;;;5.00;93.60;;;;;;5137652;27;20038;-74
2022/04/18 04:44:49;;;;;;;35.25;17.98;;;5.10;93.60;;;;;;5121083;27;20115;-74
2022/04/18 04:47:15;;;;;;;35.08;17.33;;;5.10;93.60;;;;;;5120768;27;20470;-74
2022/04/18 04:49:41;;;;;;;34.08;17.70;;;5.10;93.70;;;;;;5136753;27;20475;-75
2022/04/18 04:52:07;;;;;;;35.72;18.17;;;5.10;93.70;;;;;;5137273;27;20046;-76
2022/04/18 04:54:34;;;;;;;37.83;18.63;;;5.20;93.80;;;;;;5103202;27;20109;-75
2022/04/18 04:57:00;;;;;;;31.60;17.40;;;5.20;94.30;;;;;;5137339;27;20043;-76
2022/04/18 04:59:25;;;;;;;36.33;18.13;;;5.40;94.50;;;;;;5155494;27;20501;-75
2022/04/18 05:01:51;;;;;;;34.90;17.83;;;5.40;94.80;;;;;;5154658;27;20489;-75
2022/04/18 05:04:18;;;;;;;34.13;18.30;;;5.50;94.80;;;;;;5136892;27;20472;-75
2022/04/18 05:06:44;;;;;;;34.05;18.33;;;5.50;95.40;;;;;;5120739;27;20127;-75
2022/04/18 05:09:10;;;;;;;34.05;18.15;;;5.60;95.80;;;;;;5120056;27;20146;-75
2022/04/18 05:11:36;;;;;;;30.10;17.60;;;5.60;96.00;;;;;;5156637;27;20433;-75
2022/04/18 05:14:02;;;;;;;31.98;17.95;;;5.60;96.60;;;;;;5157611;27;20039;-75
2022/04/18 05:16:28;;;;;;;33.75;17.40;;;5.70;96.40;;;;;;5156895;27;20122;-75
2022/04/18 05:18:54;;;;;;;31.73;17.77;;;5.90;96.30;;;;;;5155482;27;20073;-75
2022/04/18 05:21:20;;;;;;;32.38;17.67;;;6.00;95.90;;;;;;5156088;27;20392;-74
2022/04/18 05:23:45;;;;;;;32.05;17.40;;;6.10;95.60;;;;;;5120546;27;20043;-75
2022/04/18 05:26:11;;;;;;;31.38;16.73;;;6.20;95.50;;;;;;5120193;27;20054;-75
2022/04/18 05:28:37;;;;;;;32.85;15.57;;;6.30;95.20;;;;;;5120542;27;20087;-75
2022/04/18 05:31:02;;;;;;;29.67;15.32;;;6.50;94.30;;;;;;5137717;27;20130;-75
2022/04/18 05:33:28;;;;;;;30.38;16.25;;;6.60;93.90;;;;;;5136840;27;20153;-74
2022/04/18 05:35:54;;;;;;;29.45;16.63;;;6.70;93.70;;;;;;5137928;27;20061;-75
2022/04/18 05:38:20;;;;;;;33.25;16.25;;;6.80;93.30;;;;;;5137950;27;20547;-75
2022/04/18 05:40:46;;;;;;;32.45;16.02;;;6.90;93.40;;;;;;5139295;27;20074;-75
2022/04/18 05:43:12;;;;;;;27.35;15.68;;;7.00;93.10;;;;;;5149728;27;20049;-75
2022/04/18 05:45:38;;;;;;;30.95;15.13;;;7.00;92.90;;;;;;5105086;27;20062;-75
2022/04/18 05:48:05;;;;;;;29.52;15.68;;;7.10;92.20;;;;;;5154845;27;20071;-74
2022/04/18 05:50:31;;;;;;;27.67;13.50;;;7.20;91.70;;;;;;5153149;27;20064;-74
2022/04/18 05:52:57;;;;;;;31.58;16.23;;;7.20;91.10;;;;;;5154359;27;20055;-74
2022/04/18 05:55:23;;;;;;;31.30;16.08;;;7.30;91.20;;;;;;5136535;27;20042;-75
2022/04/18 05:57:50;;;;;;;31.17;16.75;;;7.40;91.70;;;;;;5133251;27;20043;-73
2022/04/18 06:00:16;;;;;;;27.27;15.52;;;7.40;92.00;;;;;;5127438;27;20081;-72
2022/04/18 06:02:42;;;;;;;29.02;15.70;;;7.40;92.20;;;;;;5109191;27;20047;-74
2022/04/18 06:05:08;;;;;;;30.17;15.52;;;7.60;91.70;;;;;;5165359;27;20115;-74
2022/04/18 06:07:34;;;;;;;28.20;15.18;;;7.60;91.70;;;;;;5148700;27;20090;-75
2022/04/18 06:10:01;;;;;;;29.80;15.40;;;7.60;91.80;;;;;;5169301;27;20046;-73
2022/04/18 06:12:27;;;;;;;24.50;13.68;;;7.70;91.30;;;;;;5135991;27;20118;-75
2022/04/18 06:14:54;;;;;;;26.15;15.07;;;7.90;90.40;;;;;;5149861;27;20122;-74
2022/04/18 06:17:19;;;;;;;25.90;13.18;;;8.00;89.80;;;;;;5147675;27;20035;-76
2022/04/18 06:19:45;;;;;;;29.05;14.23;;;8.20;87.30;;;;;;5130097;27;20051;-74
2022/04/18 06:22:11;;;;;;;31.00;14.50;;;8.10;87.90;;;;;;5146383;27;20102;-74
2022/04/18 06:24:37;;;;;;;23.73;12.70;;;8.20;87.50;;;;;;5145922;27;20093;-76
2022/04/18 06:27:03;;;;;;;28.27;13.75;;;8.30;85.70;;;;;;5164559;27;20085;-74
2022/04/18 06:29:29;;;;;;;35.28;14.70;;;8.40;85.90;;;;;;5163714;27;20047;-74
2022/04/18 06:31:55;;;;;;;23.63;13.45;;;8.40;85.30;;;;;;5128032;27;20106;-75
2022/04/18 06:34:21;;;;;;;26.92;14.35;;;8.50;84.90;;;;;;5111156;27;20093;-74
2022/04/18 06:36:47;;;;;;;29.77;14.55;;;8.50;85.20;;;;;;5145310;27;20070;-74
2022/04/18 06:39:13;;;;;;;24.83;12.63;;;8.50;85.80;;;;;;5128339;27;20069;-73
2022/04/18 06:41:39;;;;;;;26.23;13.45;;;8.60;85.60;;;;;;5163946;27;20068;-73
2022/04/18 06:44:05;;;;;;;26.73;15.05;;;8.80;84.80;;;;;;5145271;27;20086;-74
2022/04/18 06:46:31;;;;;;;28.88;14.50;;;8.80;84.70;;;;;;5163302;27;20030;-73
2022/04/18 06:48:56;;;;;;;26.20;13.82;;;8.80;85.30;;;;;;5164339;27;20133;-75
2022/04/18 06:51:22;;;;;;;27.92;16.90;;;8.90;85.00;;;;;;5146387;27;20042;-74
2022/04/18 06:53:54;;;;;;;25.40;14.23;;;9.00;84.20;;;;;;5113721;27;20053;-75
2022/04/18 06:59:04;;;;;;;26.23;14.30;;;9.10;85.00;;;;;;5163077;27;20091;-74
2022/04/18 07:01:30;;;;;;;27.77;13.63;;;9.20;84.50;;;;;;5127086;27;20375;-77
2022/04/18 07:03:56;;;;;;;25.55;14.38;;;9.30;85.20;;;;;;5127170;27;20062;-77
2022/04/18 07:06:21;;;;;;;27.52;14.93;;;9.40;84.90;;;;;;5162957;27;20088;-75
2022/04/18 07:08:47;;;;;;;27.38;13.30;;;9.50;85.50;;;;;;5128515;27;20050;-77
2022/04/18 07:11:13;;;;;;;25.42;13.20;;;9.60;85.40;;;;;;5130198;27;20047;-76
2022/04/18 07:13:39;;;;;;;27.80;13.95;;;9.70;82.80;;;;;;5131487;27;20050;-75
2022/04/18 07:16:07;;;;;;;25.33;13.75;;;9.90;82.50;;;;;;5131656;27;20058;-74
2022/04/18 07:18:33;;;;;;;26.95;14.35;;;9.90;83.20;;;;;;5130739;27;20046;-76
2022/04/18 07:20:59;;;;;;;25.42;13.77;;;10.10;82.90;;;;;;5130569;27;20050;-75
2022/04/18 07:23:25;;;;;;;33.53;13.60;;;10.10;83.20;;;;;;5147340;27;20053;-75
2022/04/18 07:25:51;;;;;;;22.63;12.70;;;10.20;81.90;;;;;;5166020;27;20035;-74
2022/04/18 07:28:16;;;;;;;23.52;12.60;;;10.30;82.00;;;;;;5131900;27;20102;-76
2022/04/18 07:30:42;;;;;;;22.75;13.07;;;10.40;82.00;;;;;;5114107;27;20103;-74
2022/04/18 07:33:10;;;;;;;24.98;12.82;;;10.40;82.20;;;;;;5112676;27;20051;-75
2022/04/18 07:35:35;;;;;;;25.60;13.05;;;10.50;81.70;;;;;;5131229;27;20043;-78
2022/04/18 07:40:45;;;;;;;26.15;13.02;;;10.80;80.80;;;;;;5132508;27;20043;-77
2022/04/18 07:43:11;;;;;;;26.20;13.05;;;10.90;81.00;;;;;;5148630;27;20053;-75
2022/04/18 07:45:37;;;;;;;24.63;12.40;;;10.90;81.60;;;;;;5131959;27;20117;-74
2022/04/18 07:48:10;;;;;;;25.20;12.82;;;10.90;81.60;;;;;;5167555;27;20182;-75
2022/04/18 07:53:21;;;;;;;21.77;11.10;;;11.20;82.10;;;;;;5167504;27;20046;-76
2022/04/18 07:55:48;;;;;;;24.50;10.50;;;11.30;80.30;;;;;;5148247;27;20068;-75
2022/04/18 07:58:14;;;;;;;24.33;12.63;;;11.50;79.50;;;;;;5148225;27;20043;-75
2022/04/18 08:00:39;;;;;;;22.58;12.20;;;11.50;80.00;;;;;;5165468;27;20038;-76
2022/04/18 08:03:05;;;;;;;22.52;12.65;;;11.60;78.90;;;;;;5130646;27;20092;-78
2022/04/18 08:05:31;;;;;;;22.45;11.45;;;11.70;76.40;;;;;;5129657;27;20105;-75
2022/04/18 08:07:58;;;;;;;27.90;12.20;;;11.80;78.30;;;;;;5115041;27;20440;-74
2022/04/18 08:10:24;;;;;;;21.60;11.13;;;11.90;78.50;;;;;;5130708;27;20056;-75
2022/04/18 08:12:50;;;;;;;20.60;11.05;;;12.00;78.10;;;;;;5148164;27;20074;-77
2022/04/18 08:15:16;;;;;;;19.48;10.10;;;12.10;77.70;;;;;;5149037;27;20054;-76
2022/04/18 08:17:42;;;;;;;23.00;12.00;;;12.20;76.50;;;;;;5147923;27;20046;-73
2022/04/18 08:20:08;;;;;;;20.40;11.05;;;12.30;75.80;;;;;;5130900;27;20045;-76
2022/04/18 08:22:33;;;;;;;21.58;10.95;;;12.30;76.00;;;;;;5129783;27;20134;-75
2022/04/18 08:24:59;;;;;;;21.35;10.90;;;12.40;73.90;;;;;;5166842;27;20046;-75
2022/04/18 08:27:25;;;;;;;24.92;11.38;;;12.60;72.60;;;;;;5146673;27;20064;-74
2022/04/18 08:29:50;;;;;;;19.48;10.98;;;12.60;73.50;;;;;;5146336;27;20034;-76
2022/04/18 08:32:23;;;;;;;25.25;11.38;;;12.80;73.50;;;;;;5166513;27;20042;-74
2022/04/18 08:34:49;;;;;;;23.42;11.93;;;12.90;71.90;;;;;;5130955;27;20043;-77
2022/04/18 08:37:15;;;;;;;24.92;11.55;;;12.90;70.50;;;;;;5132175;27;20087;-76
2022/04/18 08:39:41;;;;;;;22.40;11.93;;;12.90;73.40;;;;;;5110915;27;20047;-74
2022/04/18 08:42:08;;;;;;;22.35;12.25;;;13.10;70.80;;;;;;5114839;27;20058;-74
2022/04/18 08:44:34;;;;;;;24.73;12.02;;;13.20;70.00;;;;;;5150314;27;20035;-73
2022/04/18 08:47:00;;;;;;;21.85;10.90;;;13.20;70.80;;;;;;5149686;27;20091;-75
2022/04/18 08:54:58;;;;;;;18.10;9.20;;;13.40;70.30;;;;;;5148165;27;20046;-75
2022/04/18 08:57:24;;;;;;;20.45;9.30;;;13.50;70.80;;;;;;5149527;27;20039;-78
2022/04/18 08:59:50;;;;;;;21.75;10.00;;;13.60;70.80;;;;;;5134124;27;20046;-78
2022/04/18 09:02:17;;;;;;;20.00;10.48;;;13.60;67.10;;;;;;5123455;27;20034;-75
2022/04/18 09:04:44;;;;;;;;;;;13.70;67.70;;;;;;5104896;27;20047;-76
2022/04/18 09:07:12;;;;;;;17.73;9.63;;;13.90;69.30;;;;;;5139191;27;19921;-75
2022/04/18 09:09:38;;;;;;;21.05;9.98;;;13.90;67.00;;;;;;5157155;27;20042;-74
2022/04/18 09:12:33;;;;;;;19.52;9.75;;;14.00;69.20;;;;;;5121422;27;20038;-76
2022/04/18 09:14:59;;;;;;;18.92;10.20;;;14.00;69.60;;;;;;5121200;27;20050;-73
2022/04/18 09:17:29;;;;;;;22.30;10.73;;;14.10;69.20;;;;;;5160182;27;20201;-78
2022/04/18 09:20:11;;;;;;;20.83;10.35;;;14.20;68.10;;;;;;5142178;27;20487;-76
2022/04/18 09:22:46;;;;;;;21.35;10.65;;;14.20;66.00;;;;;;5126850;27;20074;-73
2022/04/18 09:25:19;;;;;;;23.67;11.20;;;14.30;67.20;;;;;;5124852;27;20043;-75
2022/04/18 09:27:58;;;;;;;18.70;9.77;;;14.40;67.00;;;;;;5158233;27;20060;-75
2022/04/18 09:30:25;;;;;;;20.98;9.75;;;14.50;65.00;;;;;;5139014;27;20367;-76
2022/04/18 09:33:08;;;;;;;17.08;9.35;;;14.50;67.00;;;;;;5140777;27;20051;-77
2022/04/18 09:35:35;;;;;;;17.27;9.55;;;14.60;64.10;;;;;;5124542;27;20383;-75
2022/04/18 09:38:01;;;;;;;;;;;14.60;65.00;;;;;;5137656;27;20502;-75
2022/04/18 09:40:30;;;;;;;;;;;14.70;66.90;;;;;;5155952;27;19919;-77
2022/04/18 09:42:57;;;;;;;22.52;10.48;;;14.70;65.90;;;;;;5137193;27;19966;-73
2022/04/18 09:45:23;;;;;;;21.00;11.73;;;14.80;68.30;;;;;;5137795;27;20046;-77
2022/04/18 09:47:58;;;;;;;17.27;9.95;;;15.00;64.00;;;;;;5136718;27;20141;-76
2022/04/18 09:53:24;;;;;;;16.77;10.07;;;15.00;64.70;;;;;;5154954;27;20050;-74
2022/04/18 09:55:53;;;;;;;20.60;10.68;;;15.20;65.40;;;;;;5136440;27;20079;-76
2022/04/18 09:58:19;;;;;;;19.30;11.43;;;15.30;64.50;;;;;;5135796;27;20130;-75
2022/04/18 10:00:46;;;;;;;19.38;10.85;;;15.30;64.00;;;;;;5136682;27;20039;-75
2022/04/18 10:03:12;;;;;;;22.08;11.77;;;15.20;65.00;;;;;;5154950;27;20051;-78
2022/04/18 10:05:39;;;;;;;21.08;11.05;;;15.30;65.30;;;;;;5119382;27;20039;-75
2022/04/18 10:08:05;;;;;;;20.13;10.55;;;15.30;64.50;;;;;;5136841;27;20126;-75
2022/04/18 10:10:40;;;;;;;19.52;9.88;;;15.50;63.20;;;;;;5154785;27;20035;-74
2022/04/18 10:13:07;;;;;;;24.48;11.73;;;15.50;63.30;;;;;;5135814;27;20152;-74
2022/04/18 10:15:35;;;;;;;21.00;10.93;;;15.50;64.20;;;;;;5136706;27;20061;-75
2022/04/18 10:18:06;;;;;;;17.83;9.02;;;15.60;64.10;;;;;;5101957;27;20051;-72
2022/04/18 10:20:47;;;;;;;18.50;9.77;;;15.80;61.50;;;;;;5136670;27;20047;-75
2022/04/18 10:23:26;;;;;;;20.05;10.75;;;15.80;60.80;;;;;;5118906;27;20070;-75
2022/04/18 10:26:34;;;;;;;17.55;10.13;;;15.80;61.90;;;;;;5136548;27;20047;-75
2022/04/18 10:29:07;;;;;;;17.80;10.57;;;15.80;63.10;;;;;;5098015;27;20059;-75
2022/04/18 10:31:37;;;;;;;16.83;9.30;;;15.90;63.00;;;;;;5119252;27;20179;-75
2022/04/18 10:34:03;;;;;;;16.73;8.93;;;16.00;62.40;;;;;;5155005;27;20042;-77
2022/04/18 10:36:31;;;;;;;16.57;8.60;;;16.00;62.90;;;;;;5137248;27;20055;-76
2022/04/18 10:39:06;;;;;;;13.88;8.38;;;16.10;62.30;;;;;;5120043;27;20288;-75
2022/04/18 10:41:33;;;;;;;18.55;9.32;;;16.20;62.40;;;;;;5154798;27;20055;-76
2022/04/18 10:44:18;;;;;;;16.67;8.18;;;16.30;60.90;;;;;;5136099;27;20039;-77
2022/04/18 10:46:55;;;;;;;16.08;7.70;;;16.40;60.80;;;;;;5137127;27;20148;-76
2022/04/18 10:49:32;;;;;;;15.55;9.07;;;16.60;60.90;;;;;;5159977;27;20204;-77
2022/04/18 10:52:08;;;;;;;14.43;8.68;;;16.60;60.80;;;;;;5140503;27;20035;-76
2022/04/18 10:54:35;;;;;;;18.60;8.32;;;16.60;60.50;;;;;;5141148;27;20103;-80
2022/04/18 10:57:01;;;;;;;17.20;8.35;;;16.70;61.70;;;;;;5159240;27;20485;-77
2022/04/18 10:59:30;;;;;;;12.38;5.30;;;16.70;56.50;;;;;;5140758;27;20086;-75
2022/04/18 11:01:58;;;;;;;12.73;6.28;;;16.80;58.80;;;;;;5157841;27;20103;-76
2022/04/18 11:04:33;;;;;;;11.55;6.00;;;16.90;57.00;;;;;;5124114;27;20495;-76
2022/04/18 11:07:04;;;;;;;9.73;4.97;;;16.90;57.30;;;;;;5123643;27;20053;-74
2022/04/18 11:09:32;;;;;;;9.77;5.55;;;17.00;57.50;;;;;;5123456;27;20046;-75
2022/04/18 11:12:16;;;;;;;9.23;4.90;;;17.00;57.20;;;;;;5141068;27;20498;-75
2022/04/18 11:14:47;;;;;;;11.18;5.25;;;17.10;54.20;;;;;;5142521;27;20138;-77
2022/04/18 11:17:24;;;;;;;11.75;5.90;;;17.20;53.60;;;;;;5142491;27;20046;-77
2022/04/18 11:19:50;;;;;;;;;;;17.10;53.70;;;;;;5140697;27;20046;-75
2022/04/18 11:22:21;;;;;;;11.33;5.90;;;17.10;55.30;;;;;;5158673;27;19926;-75
2022/04/18 11:24:51;;;;;;;12.93;7.05;;;17.10;52.80;;;;;;5160193;27;20046;-75
2022/04/18 11:27:19;;;;;;;14.60;6.57;;;17.20;53.70;;;;;;5159072;27;20051;-74
2022/04/18 11:30:18;;;;;;;11.65;5.60;;;17.20;54.80;;;;;;5139484;27;20057;-75
2022/04/18 11:32:46;;;;;;;8.82;4.70;;;17.40;52.10;;;;;;5084046;27;20101;-74
2022/04/18 11:35:13;;;;;;;9.05;4.60;;;17.40;50.60;;;;;;5123292;27;20431;-75
2022/04/18 11:37:40;;;;;;;;;;;17.40;51.10;;;;;;5122649;27;20035;-76
2022/04/18 11:40:07;;;;;;;;;;;17.40;49.70;;;;;;5157936;27;19925;-75
2022/04/18 11:42:34;;;;;;;11.20;6.30;;;17.40;51.40;;;;;;5138784;27;19919;-74
2022/04/18 11:45:02;;;;;;;20.27;10.60;;;17.50;50.50;;;;;;5138945;27;20380;-74
2022/04/18 11:47:40;;;;;;;42.97;20.60;;;17.60;49.80;;;;;;5157410;27;20130;-74
2022/04/18 11:50:08;;;;;;;15.77;9.68;;;17.60;49.40;;;;;;5138780;27;20122;-75
2022/04/18 11:52:40;;;;;;;8.27;4.68;;;17.60;50.50;;;;;;5122071;27;20062;-75
2022/04/18 11:55:11;;;;;;;11.80;5.25;;;17.60;49.80;;;;;;5105430;27;20051;-75
2022/04/18 11:57:38;;;;;;;11.63;4.60;;;17.70;46.70;;;;;;5121310;27;20062;-76
2022/04/18 12:06:44;;;;;;;7.32;3.80;;;17.70;47.50;;;;;;5157129;27;20043;-76
2022/04/18 12:08:31;;;;;;;9.05;4.28;;;18.00;45.10;;;;;;5142179;27;20077;-76
2022/04/18 12:10:57;;;;;;;11.90;4.75;;;18.10;49.10;;;;;;5157845;27;20050;-76
2022/04/18 12:13:23;;;;;;;11.43;5.38;;;18.10;48.40;;;;;;5139749;27;20366;-76
2022/04/18 12:15:49;;;;;;;11.38;5.30;;;18.10;48.00;;;;;;5139967;27;20060;-76
2022/04/18 12:18:18;;;;;;;9.87;5.20;;;17.90;48.80;;;;;;5122941;27;20062;-75
2022/04/18 12:20:49;;;;;;;7.85;4.72;;;17.80;44.80;;;;;;5140069;27;20370;-76
2022/04/18 12:23:20;;;;;;;10.05;5.43;;;17.80;47.90;;;;;;5139632;27;20141;-76
2022/04/18 12:25:55;;;;;;;9.40;4.88;;;18.00;49.60;;;;;;5139137;27;20062;-77
2022/04/18 12:28:23;;;;;;;8.85;4.43;;;18.10;45.90;;;;;;5139905;27;20123;-76
2022/04/18 12:30:50;;;;;;;11.05;4.88;;;17.90;44.20;;;;;;5139341;27;20046;-78
2022/04/18 12:33:21;;;;;;;9.73;5.30;;;18.00;45.60;;;;;;5138902;27;20050;-76
2022/04/18 12:35:56;;;;;;;10.38;5.45;;;17.90;44.30;;;;;;5139006;27;20069;-76
2022/04/18 12:38:36;;;;;;;8.85;5.13;;;17.80;41.40;;;;;;5139649;27;20066;-76
2022/04/18 12:41:03;;;;;;;12.30;6.68;;;17.90;46.90;;;;;;5135641;27;20058;-74
2022/04/18 12:43:34;;;;;;;11.68;5.22;;;18.00;47.30;;;;;;5135782;27;20047;-75
2022/04/18 12:46:09;;;;;;;10.02;5.28;;;18.00;46.90;;;;;;5118934;27;20122;-78
2022/04/18 12:48:37;;;;;;;8.85;4.50;;;18.00;47.60;;;;;;5118446;27;20072;-76
2022/04/18 12:51:05;;;;;;;8.48;4.53;;;18.20;47.10;;;;;;5119868;27;20055;-77
2022/04/18 12:53:48;;;;;;;10.20;4.72;;;18.20;46.50;;;;;;5120005;27;20051;-77
2022/04/18 12:56:22;;;;;;;8.95;5.13;;;18.30;43.30;;;;;;5136144;27;20078;-76
2022/04/18 12:59:02;;;;;;;15.38;4.20;;;18.10;40.00;;;;;;5136354;27;20054;-75
2022/04/18 13:01:35;;;;;;;7.47;4.30;;;18.00;42.80;;;;;;5138423;27;20053;-78
2022/04/18 13:04:03;;;;;;;9.25;5.13;;;18.00;42.40;;;;;;5137920;27;20078;-75
2022/04/18 13:06:34;;;;;;;11.00;4.90;;;18.10;45.30;;;;;;5136691;27;20556;-76
2022/04/18 13:09:10;;;;;;;9.20;5.32;;;18.20;46.70;;;;;;5120394;28;20047;-76
2022/04/18 13:11:41;;;;;;;8.75;4.63;;;18.30;43.30;;;;;;5121310;27;20142;-76
2022/04/18 13:14:09;;;;;;;10.38;5.38;;;18.30;44.20;;;;;;5140291;27;20050;-77